Terminal Aerodrome Forecast
Issued by NWS Louisville, KY

Home | Current Version | Previous Version | Text Only | Print | Product List | Glossary On
Versions: 1 2 3 4 5 6 7 8 9 10 11 12 13 14 15 16 17 18
000
FTUS43 KLMK 220520
TAFBWG
TAF
KBWG 220520Z 2206/2306 00000KT P6SM SCT250
     FM220900 00000KT 5SM BR SCT250
      TEMPO 2210/2212 3SM BR SCT003
     FM221300 25004KT P6SM SCT050
     FM230000 VRB03KT P6SM SCT250=

USA.gov is the U.S. government's official web portal to all federal, state and local government web resources and services.